sensor_id;sensor_type;location;lat;lon;timestamp;pressure;altitude;pressure_sealevel;temperature;humidity
81155;BME280;70631;50.436;7.826;2023-06-14T00:02:03;98851.03;;;16.58;49.94
81155;BME280;70631;50.436;7.826;2023-06-14T00:04:28;98852.81;;;16.50;49.50
81155;BME280;70631;50.436;7.826;2023-06-14T00:06:55;98849.50;;;16.48;49.55
81155;BME280;70631;50.436;7.826;2023-06-14T00:09:22;98849.31;;;16.50;49.56
81155;BME280;70631;50.436;7.826;2023-06-14T00:11:47;98852.00;;;16.50;49.28
81155;BME280;70631;50.436;7.826;2023-06-14T00:14:12;98852.19;;;16.48;49.63
81155;BME280;70631;50.436;7.826;2023-06-14T00:16:37;98848.81;;;16.46;49.33
81155;BME280;70631;50.436;7.826;2023-06-14T00:19:04;98850.22;;;16.42;49.46
81155;BME280;70631;50.436;7.826;2023-06-14T00:21:30;98851.81;;;16.37;49.25
81155;BME280;70631;50.436;7.826;2023-06-14T00:23:57;98842.28;;;16.34;49.22
81155;BME280;70631;50.436;7.826;2023-06-14T00:26:23;98850.75;;;16.31;49.47
81155;BME280;70631;50.436;7.826;2023-06-14T00:28:48;98852.78;;;16.29;49.21
81155;BME280;70631;50.436;7.826;2023-06-14T00:31:13;98845.44;;;16.23;49.58
81155;BME280;70631;50.436;7.826;2023-06-14T00:33:39;98852.88;;;16.21;49.89
81155;BME280;70631;50.436;7.826;2023-06-14T00:36:04;98841.22;;;16.14;49.55
81155;BME280;70631;50.436;7.826;2023-06-14T00:38:30;98843.25;;;16.12;50.30
81155;BME280;70631;50.436;7.826;2023-06-14T00:40:55;98841.97;;;16.08;50.19
81155;BME280;70631;50.436;7.826;2023-06-14T00:43:20;98846.03;;;16.04;50.60
81155;BME280;70631;50.436;7.826;2023-06-14T00:45:45;98851.31;;;15.97;50.40
81155;BME280;70631;50.436;7.826;2023-06-14T00:48:12;98844.47;;;15.95;50.70
81155;BME280;70631;50.436;7.826;2023-06-14T00:50:38;98853.09;;;15.90;51.00
81155;BME280;70631;50.436;7.826;2023-06-14T00:53:05;98853.00;;;15.83;51.49
81155;BME280;70631;50.436;7.826;2023-06-14T00:55:31;98854.75;;;15.76;51.63
81155;BME280;70631;50.436;7.826;2023-06-14T00:57:58;98854.47;;;15.71;52.04
81155;BME280;70631;50.436;7.826;2023-06-14T01:00:23;98849.28;;;15.70;51.74
81155;BME280;70631;50.436;7.826;2023-06-14T01:02:49;98859.94;;;15.63;51.78
81155;BME280;70631;50.436;7.826;2023-06-14T01:05:17;98856.94;;;15.58;52.09
81155;BME280;70631;50.436;7.826;2023-06-14T01:07:59;98861.38;;;15.51;52.17
81155;BME280;70631;50.436;7.826;2023-06-14T01:13:20;98859.63;;;15.43;52.40
81155;BME280;70631;50.436;7.826;2023-06-14T01:15:47;98859.25;;;15.46;52.59
81155;BME280;70631;50.436;7.826;2023-06-14T01:18:12;98863.31;;;15.42;52.88
81155;BME280;70631;50.436;7.826;2023-06-14T01:20:45;98861.81;;;15.40;52.65
81155;BME280;70631;50.436;7.826;2023-06-14T01:23:16;98862.81;;;15.39;53.24
81155;BME280;70631;50.436;7.826;2023-06-14T01:25:41;98855.31;;;15.34;53.27
81155;BME280;70631;50.436;7.826;2023-06-14T01:28:09;98857.34;;;15.32;53.28
81155;BME280;70631;50.436;7.826;2023-06-14T01:30:41;98854.38;;;15.27;53.40
81155;BME280;70631;50.436;7.826;2023-06-14T01:33:14;98854.75;;;15.24;53.89
81155;BME280;70631;50.436;7.826;2023-06-14T01:35:45;98870.03;;;15.23;53.63
81155;BME280;70631;50.436;7.826;2023-06-14T01:38:12;98864.66;;;15.23;53.49
81155;BME280;70631;50.436;7.826;2023-06-14T01:40:38;98852.97;;;15.16;53.87
81155;BME280;70631;50.436;7.826;2023-06-14T01:43:05;98850.00;;;15.11;54.14
81155;BME280;70631;50.436;7.826;2023-06-14T01:45:31;98861.09;;;15.08;54.25
81155;BME280;70631;50.436;7.826;2023-06-14T01:47:57;98862.47;;;15.04;53.98
81155;BME280;70631;50.436;7.826;2023-06-14T01:50:23;98864.50;;;15.02;54.16
81155;BME280;70631;50.436;7.826;2023-06-14T01:52:48;98859.50;;;14.99;54.16
81155;BME280;70631;50.436;7.826;2023-06-14T01:55:13;98857.16;;;14.96;54.34
81155;BME280;70631;50.436;7.826;2023-06-14T01:57:38;98860.19;;;14.93;54.43
81155;BME280;70631;50.436;7.826;2023-06-14T02:00:04;98860.56;;;14.90;54.81
81155;BME280;70631;50.436;7.826;2023-06-14T02:02:33;98860.09;;;14.86;54.75
81155;BME280;70631;50.436;7.826;2023-06-14T02:04:58;98865.16;;;14.81;54.76
81155;BME280;70631;50.436;7.826;2023-06-14T02:07:24;98857.97;;;14.74;55.07
81155;BME280;70631;50.436;7.826;2023-06-14T02:09:49;98862.03;;;14.70;55.11
81155;BME280;70631;50.436;7.826;2023-06-14T02:12:15;98853.69;;;14.64;55.00
81155;BME280;70631;50.436;7.826;2023-06-14T02:14:40;98857.94;;;14.59;55.05
81155;BME280;70631;50.436;7.826;2023-06-14T02:17:05;98854.78;;;14.55;55.41
81155;BME280;70631;50.436;7.826;2023-06-14T02:19:31;98862.16;;;14.53;55.39
81155;BME280;70631;50.436;7.826;2023-06-14T02:21:56;98865.81;;;14.52;55.78
81155;BME280;70631;50.436;7.826;2023-06-14T02:24:22;98849.25;;;14.49;55.37
81155;BME280;70631;50.436;7.826;2023-06-14T02:26:48;98861.00;;;14.48;55.72
81155;BME280;70631;50.436;7.826;2023-06-14T02:29:13;98867.38;;;14.47;55.56
81155;BME280;70631;50.436;7.826;2023-06-14T02:31:40;98858.16;;;14.41;55.92
81155;BME280;70631;50.436;7.826;2023-06-14T02:34:05;98863.88;;;14.38;55.50
81155;BME280;70631;50.436;7.826;2023-06-14T02:36:30;98866.91;;;14.35;55.50
81155;BME280;70631;50.436;7.826;2023-06-14T02:38:56;98869.59;;;14.35;55.71
81155;BME280;70631;50.436;7.826;2023-06-14T02:41:24;98867.94;;;14.34;55.75
81155;BME280;70631;50.436;7.826;2023-06-14T02:43:51;98866.44;;;14.31;55.71
81155;BME280;70631;50.436;7.826;2023-06-14T02:46:16;98861.22;;;14.30;55.91
81155;BME280;70631;50.436;7.826;2023-06-14T02:48:41;98870.94;;;14.31;55.74
81155;BME280;70631;50.436;7.826;2023-06-14T02:51:06;98863.25;;;14.28;55.26
81155;BME280;70631;50.436;7.826;2023-06-14T02:53:33;98865.63;;;14.23;56.16
81155;BME280;70631;50.436;7.826;2023-06-14T02:55:59;98876.22;;;14.16;56.26
81155;BME280;70631;50.436;7.826;2023-06-14T02:58:24;98869.38;;;14.14;56.17
81155;BME280;70631;50.436;7.826;2023-06-14T03:00:50;98865.03;;;14.13;56.24
81155;BME280;70631;50.436;7.826;2023-06-14T03:03:17;98871.03;;;14.15;56.22
81155;BME280;70631;50.436;7.826;2023-06-14T03:05:45;98871.22;;;14.13;56.65
81155;BME280;70631;50.436;7.826;2023-06-14T03:08:15;98873.38;;;14.10;56.30
81155;BME280;70631;50.436;7.826;2023-06-14T03:10:47;98879.25;;;14.05;56.77
81155;BME280;70631;50.436;7.826;2023-06-14T03:13:13;98878.78;;;14.01;56.48
81155;BME280;70631;50.436;7.826;2023-06-14T03:15:38;98880.13;;;13.97;56.58
81155;BME280;70631;50.436;7.826;2023-06-14T03:18:06;98885.66;;;13.96;56.97
81155;BME280;70631;50.436;7.826;2023-06-14T03:20:32;98892.22;;;13.93;56.91
81155;BME280;70631;50.436;7.826;2023-06-14T03:23:02;98891.72;;;13.90;57.24
81155;BME280;70631;50.436;7.826;2023-06-14T03:25:28;98889.53;;;13.93;56.92
81155;BME280;70631;50.436;7.826;2023-06-14T03:27:58;98892.38;;;13.92;56.93
81155;BME280;70631;50.436;7.826;2023-06-14T03:30:23;98896.72;;;13.93;57.07
81155;BME280;70631;50.436;7.826;2023-06-14T03:32:49;98906.44;;;13.94;56.62
81155;BME280;70631;50.436;7.826;2023-06-14T03:35:17;98902.56;;;13.96;56.97
81155;BME280;70631;50.436;7.826;2023-06-14T03:37:46;98905.44;;;13.95;56.90
81155;BME280;70631;50.436;7.826;2023-06-14T03:40:12;98908.75;;;13.97;56.54
81155;BME280;70631;50.436;7.826;2023-06-14T03:42:39;98907.28;;;13.94;56.66
81155;BME280;70631;50.436;7.826;2023-06-14T03:45:05;98922.34;;;13.95;56.71
81155;BME280;70631;50.436;7.826;2023-06-14T03:47:35;98926.03;;;13.94;57.00
81155;BME280;70631;50.436;7.826;2023-06-14T03:50:02;98925.19;;;13.94;57.13
81155;BME280;70631;50.436;7.826;2023-06-14T03:52:27;98937.75;;;13.93;57.30
81155;BME280;70631;50.436;7.826;2023-06-14T03:54:53;98928.03;;;13.92;57.45
81155;BME280;70631;50.436;7.826;2023-06-14T03:57:18;98930.72;;;13.92;57.26
81155;BME280;70631;50.436;7.826;2023-06-14T03:59:44;98935.91;;;13.94;57.19
81155;BME280;70631;50.436;7.826;2023-06-14T04:02:09;98940.06;;;13.96;57.22
81155;BME280;70631;50.436;7.826;2023-06-14T04:04:35;98939.25;;;13.96;57.42
81155;BME280;70631;50.436;7.826;2023-06-14T04:07:01;98941.56;;;13.99;57.54
81155;BME280;70631;50.436;7.826;2023-06-14T04:09:29;98939.72;;;13.99;57.76
81155;BME280;70631;50.436;7.826;2023-06-14T04:11:54;98945.56;;;14.03;57.46
81155;BME280;70631;50.436;7.826;2023-06-14T04:14:20;98946.91;;;14.07;57.61
81155;BME280;70631;50.436;7.826;2023-06-14T04:16:49;98945.22;;;14.06;57.35
81155;BME280;70631;50.436;7.826;2023-06-14T04:19:17;98958.13;;;14.11;57.22
81155;BME280;70631;50.436;7.826;2023-06-14T04:21:42;98955.75;;;14.16;57.55
81155;BME280;70631;50.436;7.826;2023-06-14T04:24:08;98953.75;;;14.18;57.79
81155;BME280;70631;50.436;7.826;2023-06-14T04:26:38;98950.38;;;14.24;57.75
81155;BME280;70631;50.436;7.826;2023-06-14T04:29:04;98957.56;;;14.31;57.25
81155;BME280;70631;50.436;7.826;2023-06-14T04:31:30;98950.66;;;14.37;57.06
81155;BME280;70631;50.436;7.826;2023-06-14T04:33:59;98955.34;;;14.43;57.25
81155;BME280;70631;50.436;7.826;2023-06-14T04:36:24;98955.66;;;14.48;57.09
81155;BME280;70631;50.436;7.826;2023-06-14T04:38:51;98954.81;;;14.56;57.52
81155;BME280;70631;50.436;7.826;2023-06-14T04:41:22;98954.75;;;14.64;56.85
81155;BME280;70631;50.436;7.826;2023-06-14T04:43:48;98954.88;;;14.71;57.04
81155;BME280;70631;50.436;7.826;2023-06-14T04:46:14;98959.22;;;14.80;56.77
81155;BME280;70631;50.436;7.826;2023-06-14T04:48:40;98958.13;;;14.89;57.02
81155;BME280;70631;50.436;7.826;2023-06-14T04:51:08;98958.94;;;14.97;56.74
81155;BME280;70631;50.436;7.826;2023-06-14T04:53:33;98962.41;;;15.06;56.39
81155;BME280;70631;50.436;7.826;2023-06-14T04:55:59;98960.31;;;15.16;56.88
81155;BME280;70631;50.436;7.826;2023-06-14T04:58:26;98965.44;;;15.26;56.78
81155;BME280;70631;50.436;7.826;2023-06-14T05:00:51;98964.19;;;15.37;56.56
81155;BME280;70631;50.436;7.826;2023-06-14T05:03:16;98970.81;;;15.49;56.13
81155;BME280;70631;50.436;7.826;2023-06-14T05:05:43;98971.53;;;15.66;55.56
81155;BME280;70631;50.436;7.826;2023-06-14T05:08:08;98975.88;;;16.78;53.79
81155;BME280;70631;50.436;7.826;2023-06-14T05:10:34;98961.59;;;19.82;48.35
81155;BME280;70631;50.436;7.826;2023-06-14T05:13:01;98966.75;;;22.39;43.37
81155;BME280;70631;50.436;7.826;2023-06-14T05:15:26;98969.34;;;24.49;39.30
81155;BME280;70631;50.436;7.826;2023-06-14T05:17:52;98967.06;;;26.16;35.82
81155;BME280;70631;50.436;7.826;2023-06-14T05:20:21;98961.41;;;27.54;32.87
81155;BME280;70631;50.436;7.826;2023-06-14T05:22:47;98957.13;;;28.80;31.04
81155;BME280;70631;50.436;7.826;2023-06-14T05:25:15;98971.69;;;29.89;28.67
81155;BME280;70631;50.436;7.826;2023-06-14T05:27:40;98969.09;;;30.84;27.37
81155;BME280;70631;50.436;7.826;2023-06-14T05:30:07;98968.88;;;31.79;26.51
81155;BME280;70631;50.436;7.826;2023-06-14T05:32:33;98971.88;;;32.69;25.23
81155;BME280;70631;50.436;7.826;2023-06-14T05:34:59;98981.28;;;33.54;24.08
81155;BME280;70631;50.436;7.826;2023-06-14T05:37:24;98973.88;;;34.19;23.42
81155;BME280;70631;50.436;7.826;2023-06-14T05:39:49;98986.22;;;34.87;22.69
81155;BME280;70631;50.436;7.826;2023-06-14T05:42:15;98981.00;;;35.49;21.36
81155;BME280;70631;50.436;7.826;2023-06-14T05:44:40;98977.09;;;36.08;20.60
81155;BME280;70631;50.436;7.826;2023-06-14T05:47:05;98984.75;;;36.65;20.45
81155;BME280;70631;50.436;7.826;2023-06-14T05:49:31;98981.97;;;37.05;19.62
81155;BME280;70631;50.436;7.826;2023-06-14T05:51:57;98991.38;;;37.26;19.53
81155;BME280;70631;50.436;7.826;2023-06-14T05:54:22;98988.63;;;37.43;19.37
81155;BME280;70631;50.436;7.826;2023-06-14T05:56:47;98987.47;;;36.79;19.80
81155;BME280;70631;50.436;7.826;2023-06-14T05:59:12;98991.72;;;36.45;20.01
81155;BME280;70631;50.436;7.826;2023-06-14T06:01:38;99000.06;;;37.42;18.88
81155;BME280;70631;50.436;7.826;2023-06-14T06:04:05;98999.94;;;37.90;18.28
81155;BME280;70631;50.436;7.826;2023-06-14T06:06:30;98994.84;;;38.09;18.17
81155;BME280;70631;50.436;7.826;2023-06-14T06:08:55;99011.31;;;38.49;17.88
81155;BME280;70631;50.436;7.826;2023-06-14T06:11:21;99000.06;;;38.28;17.46
81155;BME280;70631;50.436;7.826;2023-06-14T06:13:46;99000.03;;;38.37;17.84
81155;BME280;70631;50.436;7.826;2023-06-14T06:16:11;99006.13;;;38.86;17.26
81155;BME280;70631;50.436;7.826;2023-06-14T06:18:36;99019.41;;;38.80;17.01
81155;BME280;70631;50.436;7.826;2023-06-14T06:21:03;99005.03;;;38.61;17.19
81155;BME280;70631;50.436;7.826;2023-06-14T06:23:29;99006.41;;;38.93;16.67
81155;BME280;70631;50.436;7.826;2023-06-14T06:25:54;98999.97;;;39.09;17.07
81155;BME280;70631;50.436;7.826;2023-06-14T06:28:19;99010.59;;;39.37;16.67
81155;BME280;70631;50.436;7.826;2023-06-14T06:30:45;99007.38;;;39.56;16.52
81155;BME280;70631;50.436;7.826;2023-06-14T06:33:11;99016.16;;;39.66;16.18
81155;BME280;70631;50.436;7.826;2023-06-14T06:35:37;99016.13;;;39.87;16.41
81155;BME280;70631;50.436;7.826;2023-06-14T06:38:02;99017.31;;;40.40;16.45
81155;BME280;70631;50.436;7.826;2023-06-14T06:40:27;99017.38;;;40.77;16.09
81155;BME280;70631;50.436;7.826;2023-06-14T06:42:53;99024.41;;;40.83;15.69
81155;BME280;70631;50.436;7.826;2023-06-14T06:45:19;99026.25;;;40.91;14.87
81155;BME280;70631;50.436;7.826;2023-06-14T06:47:44;99011.91;;;40.80;15.60
81155;BME280;70631;50.436;7.826;2023-06-14T06:50:10;99017.78;;;40.87;15.09
81155;BME280;70631;50.436;7.826;2023-06-14T06:52:35;99017.44;;;41.01;16.05
81155;BME280;70631;50.436;7.826;2023-06-14T06:55:01;99032.31;;;41.17;15.41
81155;BME280;70631;50.436;7.826;2023-06-14T06:57:27;99018.34;;;40.93;15.17
81155;BME280;70631;50.436;7.826;2023-06-14T06:59:54;99024.41;;;40.95;15.37
81155;BME280;70631;50.436;7.826;2023-06-14T07:02:19;99026.53;;;40.41;15.43
81155;BME280;70631;50.436;7.826;2023-06-14T07:04:44;99029.91;;;40.46;15.53
81155;BME280;70631;50.436;7.826;2023-06-14T07:07:09;99031.91;;;40.58;15.14
81155;BME280;70631;50.436;7.826;2023-06-14T07:09:35;99037.25;;;40.51;15.00
81155;BME280;70631;50.436;7.826;2023-06-14T07:12:00;99037.38;;;39.80;15.39
81155;BME280;70631;50.436;7.826;2023-06-14T07:14:26;99039.91;;;39.52;15.92
81155;BME280;70631;50.436;7.826;2023-06-14T07:16:51;99038.94;;;39.89;15.82
81155;BME280;70631;50.436;7.826;2023-06-14T07:19:16;99035.66;;;39.96;15.37
81155;BME280;70631;50.436;7.826;2023-06-14T07:21:42;99047.50;;;39.84;15.66
81155;BME280;70631;50.436;7.826;2023-06-14T07:24:07;99038.06;;;39.47;15.99
81155;BME280;70631;50.436;7.826;2023-06-14T07:26:33;99037.59;;;39.54;16.04
81155;BME280;70631;50.436;7.826;2023-06-14T07:28:58;99036.13;;;39.89;16.02
81155;BME280;70631;50.436;7.826;2023-06-14T07:31:23;99043.22;;;39.66;15.89
81155;BME280;70631;50.436;7.826;2023-06-14T07:33:49;99045.84;;;39.41;16.17
81155;BME280;70631;50.436;7.826;2023-06-14T07:36:14;99039.84;;;39.31;16.16
81155;BME280;70631;50.436;7.826;2023-06-14T07:38:39;99046.38;;;39.35;16.16
81155;BME280;70631;50.436;7.826;2023-06-14T07:41:05;99042.38;;;39.15;16.18
81155;BME280;70631;50.436;7.826;2023-06-14T07:43:31;99047.69;;;39.08;16.06
81155;BME280;70631;50.436;7.826;2023-06-14T07:45:56;99044.97;;;39.20;16.41
81155;BME280;70631;50.436;7.826;2023-06-14T07:48:22;99041.69;;;39.77;15.77
81155;BME280;70631;50.436;7.826;2023-06-14T07:50:47;99041.72;;;39.68;15.92
81155;BME280;70631;50.436;7.826;2023-06-14T07:53:12;99038.91;;;39.48;15.81
81155;BME280;70631;50.436;7.826;2023-06-14T07:55:38;99043.41;;;39.10;16.32
81155;BME280;70631;50.436;7.826;2023-06-14T07:58:08;99042.97;;;39.29;16.25
81155;BME280;70631;50.436;7.826;2023-06-14T08:00:33;99041.13;;;39.63;15.99
81155;BME280;70631;50.436;7.826;2023-06-14T08:02:58;99045.19;;;39.65;15.70
81155;BME280;70631;50.436;7.826;2023-06-14T08:05:27;99044.19;;;39.40;16.15
81155;BME280;70631;50.436;7.826;2023-06-14T08:07:53;99035.44;;;39.51;16.24
81155;BME280;70631;50.436;7.826;2023-06-14T08:10:19;99033.22;;;39.65;16.19
81155;BME280;70631;50.436;7.826;2023-06-14T08:12:45;99036.09;;;39.56;15.94
81155;BME280;70631;50.436;7.826;2023-06-14T08:15:10;99034.41;;;39.34;16.19
81155;BME280;70631;50.436;7.826;2023-06-14T08:17:35;99033.81;;;39.50;16.02
81155;BME280;70631;50.436;7.826;2023-06-14T08:20:01;99032.16;;;39.99;16.08
81155;BME280;70631;50.436;7.826;2023-06-14T08:22:26;99044.28;;;40.03;15.74
81155;BME280;70631;50.436;7.826;2023-06-14T08:24:53;99045.06;;;39.62;15.70
81155;BME280;70631;50.436;7.826;2023-06-14T08:27:19;99034.13;;;39.57;15.86
81155;BME280;70631;50.436;7.826;2023-06-14T08:29:45;99033.75;;;40.21;15.64
81155;BME280;70631;50.436;7.826;2023-06-14T08:32:11;99041.06;;;40.46;15.18
81155;BME280;70631;50.436;7.826;2023-06-14T08:34:36;99035.28;;;40.64;15.47
81155;BME280;70631;50.436;7.826;2023-06-14T08:37:02;99028.66;;;40.23;14.99
81155;BME280;70631;50.436;7.826;2023-06-14T08:39:27;99041.25;;;39.87;15.33
81155;BME280;70631;50.436;7.826;2023-06-14T08:41:52;99030.28;;;39.11;15.52
81155;BME280;70631;50.436;7.826;2023-06-14T08:44:18;99030.81;;;38.96;16.10
81155;BME280;70631;50.436;7.826;2023-06-14T08:46:43;99024.06;;;38.67;16.59
81155;BME280;70631;50.436;7.826;2023-06-14T08:49:12;99032.63;;;38.92;16.22
81155;BME280;70631;50.436;7.826;2023-06-14T08:51:38;99028.78;;;38.75;16.31
81155;BME280;70631;50.436;7.826;2023-06-14T08:54:03;99033.78;;;38.44;16.48
81155;BME280;70631;50.436;7.826;2023-06-14T08:56:31;99025.25;;;38.14;16.78
81155;BME280;70631;50.436;7.826;2023-06-14T08:58:58;99021.84;;;38.26;16.61
81155;BME280;70631;50.436;7.826;2023-06-14T09:01:26;99028.38;;;38.30;16.68
81155;BME280;70631;50.436;7.826;2023-06-14T09:03:52;99024.16;;;37.98;16.80
81155;BME280;70631;50.436;7.826;2023-06-14T09:06:20;99028.03;;;37.71;17.42
81155;BME280;70631;50.436;7.826;2023-06-14T09:08:48;99017.91;;;37.67;17.56
81155;BME280;70631;50.436;7.826;2023-06-14T09:11:16;99034.94;;;37.91;17.31
81155;BME280;70631;50.436;7.826;2023-06-14T09:13:42;99041.66;;;37.81;17.65
81155;BME280;70631;50.436;7.826;2023-06-14T09:16:07;99037.34;;;37.49;17.92
81155;BME280;70631;50.436;7.826;2023-06-14T09:18:41;99032.44;;;37.46;17.86
81155;BME280;70631;50.436;7.826;2023-06-14T09:21:07;99038.56;;;37.74;17.92
81155;BME280;70631;50.436;7.826;2023-06-14T09:23:40;99055.00;;;37.45;17.60
81155;BME280;70631;50.436;7.826;2023-06-14T09:26:12;99051.38;;;37.27;18.14
81155;BME280;70631;50.436;7.826;2023-06-14T09:28:48;99061.78;;;37.13;18.07
81155;BME280;70631;50.436;7.826;2023-06-14T09:31:15;99046.19;;;36.94;18.53
81155;BME280;70631;50.436;7.826;2023-06-14T09:33:44;99055.06;;;37.14;18.50
81155;BME280;70631;50.436;7.826;2023-06-14T09:36:18;99063.09;;;37.24;18.32
81155;BME280;70631;50.436;7.826;2023-06-14T09:41:41;99060.47;;;36.48;18.77
81155;BME280;70631;50.436;7.826;2023-06-14T09:44:08;99049.94;;;36.36;18.88
81155;BME280;70631;50.436;7.826;2023-06-14T09:46:34;99064.66;;;36.68;18.81
81155;BME280;70631;50.436;7.826;2023-06-14T09:49:01;99064.75;;;36.85;18.41
81155;BME280;70631;50.436;7.826;2023-06-14T09:51:27;99062.09;;;36.27;18.33
81155;BME280;70631;50.436;7.826;2023-06-14T09:53:55;99054.69;;;36.00;18.39
81155;BME280;70631;50.436;7.826;2023-06-14T09:56:28;99063.41;;;36.07;18.50
81155;BME280;70631;50.436;7.826;2023-06-14T09:58:56;99061.22;;;35.81;18.79
81155;BME280;70631;50.436;7.826;2023-06-14T10:01:24;99071.34;;;35.50;18.98
81155;BME280;70631;50.436;7.826;2023-06-14T10:03:55;99068.06;;;35.20;19.17
81155;BME280;70631;50.436;7.826;2023-06-14T10:06:22;99081.88;;;34.47;20.16
81155;BME280;70631;50.436;7.826;2023-06-14T10:08:51;99072.84;;;34.22;20.02
81155;BME280;70631;50.436;7.826;2023-06-14T10:11:17;99062.56;;;34.60;20.16
81155;BME280;70631;50.436;7.826;2023-06-14T10:13:43;99063.72;;;34.73;19.74
81155;BME280;70631;50.436;7.826;2023-06-14T10:16:27;99071.38;;;34.62;19.73
81155;BME280;70631;50.436;7.826;2023-06-14T10:19:13;99068.78;;;34.01;19.99
81155;BME280;70631;50.436;7.826;2023-06-14T10:24:32;99069.47;;;34.44;20.15
81155;BME280;70631;50.436;7.826;2023-06-14T10:26:59;99079.00;;;34.71;20.04
81155;BME280;70631;50.436;7.826;2023-06-14T10:29:28;99072.91;;;34.69;19.86
81155;BME280;70631;50.436;7.826;2023-06-14T10:31:58;99078.53;;;34.31;19.17
81155;BME280;70631;50.436;7.826;2023-06-14T10:34:25;99068.41;;;34.08;20.02
81155;BME280;70631;50.436;7.826;2023-06-14T10:37:04;99084.13;;;33.93;20.19
81155;BME280;70631;50.436;7.826;2023-06-14T10:39:31;99080.38;;;33.84;20.06
81155;BME280;70631;50.436;7.826;2023-06-14T10:41:57;99091.31;;;33.52;20.31
81155;BME280;70631;50.436;7.826;2023-06-14T10:47:24;99078.38;;;33.23;20.46
81155;BME280;70631;50.436;7.826;2023-06-14T10:49:54;99080.69;;;33.59;20.34
81155;BME280;70631;50.436;7.826;2023-06-14T10:52:22;99083.56;;;33.72;20.09
81155;BME280;70631;50.436;7.826;2023-06-14T10:55:10;99069.97;;;33.95;20.46
81155;BME280;70631;50.436;7.826;2023-06-14T10:57:45;99078.69;;;33.83;20.32
81155;BME280;70631;50.436;7.826;2023-06-14T11:00:12;99074.75;;;34.08;20.55
81155;BME280;70631;50.436;7.826;2023-06-14T11:03:07;99073.56;;;34.47;20.51
81155;BME280;70631;50.436;7.826;2023-06-14T11:05:52;99066.81;;;34.20;20.15
81155;BME280;70631;50.436;7.826;2023-06-14T11:10:59;99072.72;;;34.14;20.46
81155;BME280;70631;50.436;7.826;2023-06-14T11:13:26;99082.47;;;34.11;20.34
81155;BME280;70631;50.436;7.826;2023-06-14T11:15:52;99071.78;;;33.86;20.42
81155;BME280;70631;50.436;7.826;2023-06-14T11:18:22;99075.69;;;33.80;20.75
81155;BME280;70631;50.436;7.826;2023-06-14T11:20:53;99081.03;;;33.95;20.61
81155;BME280;70631;50.436;7.826;2023-06-14T11:23:18;99076.00;;;33.78;21.14
81155;BME280;70631;50.436;7.826;2023-06-14T11:25:50;99082.78;;;33.91;20.89
81155;BME280;70631;50.436;7.826;2023-06-14T11:28:15;99076.78;;;34.02;20.84
81155;BME280;70631;50.436;7.826;2023-06-14T11:30:40;99077.97;;;33.11;21.44
81155;BME280;70631;50.436;7.826;2023-06-14T11:33:09;99085.09;;;31.86;22.46
81155;BME280;70631;50.436;7.826;2023-06-14T11:35:35;99087.09;;;31.00;23.54
81155;BME280;70631;50.436;7.826;2023-06-14T11:38:01;99092.91;;;30.79;23.80
81155;BME280;70631;50.436;7.826;2023-06-14T11:40:27;99085.25;;;30.30;24.11
81155;BME280;70631;50.436;7.826;2023-06-14T11:42:59;99094.31;;;30.35;24.33
81155;BME280;70631;50.436;7.826;2023-06-14T11:45:25;99087.16;;;30.24;24.15
81155;BME280;70631;50.436;7.826;2023-06-14T11:47:53;99087.91;;;29.84;24.98
81155;BME280;70631;50.436;7.826;2023-06-14T11:50:19;99085.47;;;29.20;25.39
81155;BME280;70631;50.436;7.826;2023-06-14T11:52:44;99090.31;;;28.60;26.45
81155;BME280;70631;50.436;7.826;2023-06-14T11:55:09;99085.50;;;28.41;26.46
81155;BME280;70631;50.436;7.826;2023-06-14T11:57:36;99084.31;;;28.64;26.25
81155;BME280;70631;50.436;7.826;2023-06-14T12:00:06;99075.44;;;28.51;26.23
81155;BME280;70631;50.436;7.826;2023-06-14T12:02:40;99081.75;;;28.20;27.00
81155;BME280;70631;50.436;7.826;2023-06-14T12:05:06;99075.00;;;28.27;26.63
81155;BME280;70631;50.436;7.826;2023-06-14T12:07:38;99075.13;;;28.16;26.96
81155;BME280;70631;50.436;7.826;2023-06-14T12:10:06;99073.69;;;28.40;26.47
81155;BME280;70631;50.436;7.826;2023-06-14T12:12:36;99072.19;;;28.22;26.61
81155;BME280;70631;50.436;7.826;2023-06-14T12:15:03;99081.44;;;27.89;27.26
81155;BME280;70631;50.436;7.826;2023-06-14T12:17:32;99072.25;;;27.74;27.89
81155;BME280;70631;50.436;7.826;2023-06-14T12:19:57;99075.75;;;27.69;28.09
81155;BME280;70631;50.436;7.826;2023-06-14T12:22:23;99072.75;;;27.70;27.92
81155;BME280;70631;50.436;7.826;2023-06-14T12:24:48;99066.94;;;27.89;27.63
81155;BME280;70631;50.436;7.826;2023-06-14T12:27:13;99064.59;;;28.03;27.18
81155;BME280;70631;50.436;7.826;2023-06-14T12:29:41;99073.19;;;28.16;27.40
81155;BME280;70631;50.436;7.826;2023-06-14T12:32:08;99062.16;;;28.33;27.01
81155;BME280;70631;50.436;7.826;2023-06-14T12:34:34;99057.41;;;28.60;26.45
81155;BME280;70631;50.436;7.826;2023-06-14T12:36:59;99070.50;;;28.48;26.68
81155;BME280;70631;50.436;7.826;2023-06-14T12:39:24;99061.53;;;28.26;26.91
81155;BME280;70631;50.436;7.826;2023-06-14T12:41:50;99063.84;;;27.80;27.61
81155;BME280;70631;50.436;7.826;2023-06-14T12:44:15;99071.19;;;27.31;28.17
81155;BME280;70631;50.436;7.826;2023-06-14T12:46:41;99062.97;;;27.09;28.08
81155;BME280;70631;50.436;7.826;2023-06-14T12:49:09;99066.19;;;27.23;27.42
81155;BME280;70631;50.436;7.826;2023-06-14T12:51:34;99059.75;;;27.34;27.77
81155;BME280;70631;50.436;7.826;2023-06-14T12:54:00;99055.13;;;27.34;27.48
81155;BME280;70631;50.436;7.826;2023-06-14T12:56:25;99054.59;;;27.37;27.27
81155;BME280;70631;50.436;7.826;2023-06-14T12:58:51;99050.88;;;27.49;27.55
81155;BME280;70631;50.436;7.826;2023-06-14T13:01:17;99068.00;;;27.61;27.25
81155;BME280;70631;50.436;7.826;2023-06-14T13:03:42;99049.91;;;27.60;27.70
81155;BME280;70631;50.436;7.826;2023-06-14T13:06:07;99062.91;;;27.69;26.97
81155;BME280;70631;50.436;7.826;2023-06-14T13:08:33;99067.94;;;27.78;26.86
81155;BME280;70631;50.436;7.826;2023-06-14T13:10:58;99067.81;;;27.46;27.14
81155;BME280;70631;50.436;7.826;2023-06-14T13:13:23;99057.66;;;27.19;27.49